NCAR-RAP Real-Time Weather Data

Output produced by METARs form (14 August 2018  19:34 UTC)
found at http://weather.rap.ucar.edu/surface/
 
RJBB 141900Z AUTO VRB02KT 9999 SCT038 SCT090 BKN170 27/25 Q1012 NOSIG
 
 
 
 
 
 
 
RJOH 141900Z 13005KT 9999 FEW050 SCT/// 27/20 Q1010
 
RJOI 141855Z 04011KT 9999 BKN060 29/22 A2979 RMK SLP086 T02940222
 
 
 
 
 
 
 
 
 
 
 
RJFF 141900Z AUTO 01007KT 9999 FEW037 SCT050 BKN080 29/22 Q1005 NOSIG RMK A2970
 
 
 
 
RJFR 141900Z 05013KT 9999 FEW025 BKN045 BKN060 29/23 Q1006
 
RJFS 141900Z 01006KT 9999 FEW035 SCT050 BKN070 28/23 Q1005